Time;durP1;ratioP1;P1;durP2;ratioP2;P2;SDS_P1;SDS_P2;PMS_P1;PMS_P2;Temp;Humidity;BMP_temperature;BMP_pressure;BME280_temperature;BME280_humidity;BME280_pressure;Samples;Min_cycle;Max_cycle;Signal;HPM_P1;HPM_P2
2021/12/05 00:22:42;;;;;;;27.60;12.88;;;;;;;;;;5098530;28;20046;-77
2021/12/05 00:24:38;;;;;;;26.13;12.60;;;;;;;;;;5114740;27;20088;-80
2021/12/05 00:27:14;;;;;;;27.90;12.23;;;;;;;;;;5134680;27;20039;-78
2021/12/05 00:43:42;;;;;;;21.58;10.35;;;;;;;;;;5134356;28;20530;-79
2021/12/05 00:54:42;;;;;;;19.38;9.00;;;;;;;;;;5113920;28;20127;-78
2021/12/05 01:15:04;;;;;;;19.48;8.13;;;;;;;;;;5119413;27;20084;-78
2021/12/05 01:17:39;;;;;;;16.55;8.68;;;;;;;;;;5136664;27;20096;-77
2021/12/05 01:20:09;;;;;;;19.77;8.40;;;;;;;;;;5136635;27;20362;-77
2021/12/05 01:22:40;;;;;;;19.63;8.48;;;;;;;;;;5135886;27;20050;-76
2021/12/05 01:25:24;;;;;;;24.48;9.25;;;;;;;;;;5137188;27;20054;-77
2021/12/05 01:28:15;;;;;;;21.17;8.50;;;;;;;;;;5118703;27;20086;-78
2021/12/05 01:44:17;;;;;;;20.70;8.23;;;;;;;;;;5136751;27;20464;-77
2021/12/05 01:49:58;;;;;;;18.98;7.82;;;;;;;;;;5118501;27;20058;-77
2021/12/05 01:57:45;;;;;;;18.50;7.95;;;;;;;;;;5136438;27;20488;-76
2021/12/05 02:11:27;;;;;;;21.25;8.77;;;;;;;;;;5136404;27;20082;-78
2021/12/05 02:33:45;;;;;;;21.55;10.70;;;;;;;;;;5118304;27;20055;-76
2021/12/05 02:41:06;;;;;;;23.48;10.82;;;;;;;;;;5117248;27;20062;-77
2021/12/05 02:43:40;;;;;;;22.45;11.20;;;;;;;;;;5136010;27;20365;-78
2021/12/05 02:46:07;;;;;;;22.77;11.25;;;;;;;;;;5135849;27;20047;-77
2021/12/05 02:48:36;;;;;;;26.83;11.27;;;;;;;;;;5135754;27;20540;-76
2021/12/05 02:51:04;;;;;;;23.02;11.70;;;;;;;;;;5135668;27;20545;-76
2021/12/05 02:53:41;;;;;;;27.60;11.77;;;;;;;;;;5117224;27;20050;-77
2021/12/05 02:56:09;;;;;;;30.42;13.02;;;;;;;;;;5135559;27;20055;-77
2021/12/05 02:58:49;;;;;;;23.80;12.82;;;;;;;;;;5117152;27;20090;-79
2021/12/05 03:03:45;;;;;;;30.02;13.98;;;;;;;;;;5135318;27;20552;-76
2021/12/05 03:06:20;;;;;;;30.30;14.65;;;;;;;;;;5135068;27;20091;-78
2021/12/05 03:08:47;;;;;;;29.23;14.65;;;;;;;;;;5117160;27;20468;-79
2021/12/05 03:11:14;;;;;;;28.77;14.88;;;;;;;;;;5117135;27;20163;-75
2021/12/05 03:13:40;;;;;;;34.25;16.33;;;;;;;;;;5116884;27;20058;-76
2021/12/05 03:16:07;;;;;;;32.72;16.52;;;;;;;;;;5135082;27;20108;-77
2021/12/05 03:18:33;;;;;;;32.08;16.15;;;;;;;;;;5116780;27;20473;-77
2021/12/05 03:21:01;;;;;;;29.48;15.50;;;;;;;;;;5116989;27;20139;-77
2021/12/05 03:23:27;;;;;;;28.65;16.08;;;;;;;;;;5135472;27;20043;-76
2021/12/05 03:25:54;;;;;;;32.72;15.85;;;;;;;;;;5117026;27;20031;-77
2021/12/05 03:28:20;;;;;;;30.92;16.58;;;;;;;;;;5135097;27;20095;-78
2021/12/05 03:30:46;;;;;;;34.85;17.08;;;;;;;;;;5134989;27;20496;-77
2021/12/05 03:33:12;;;;;;;30.63;16.38;;;;;;;;;;5134619;27;20049;-76
2021/12/05 03:35:51;;;;;;;29.83;14.63;;;;;;;;;;5134366;27;20039;-76
2021/12/05 03:38:35;;;;;;;28.88;15.23;;;;;;;;;;5135246;27;20097;-76
2021/12/05 03:41:01;;;;;;;31.63;16.20;;;;;;;;;;5134689;27;20038;-76
2021/12/05 03:43:27;;;;;;;36.42;16.35;;;;;;;;;;5134712;27;20042;-79
2021/12/05 03:45:55;;;;;;;27.60;15.05;;;;;;;;;;5116645;27;20218;-77
2021/12/05 03:48:21;;;;;;;33.35;14.25;;;;;;;;;;5116487;27;20043;-77
2021/12/05 03:50:48;;;;;;;32.80;14.90;;;;;;;;;;5134735;27;20123;-78
2021/12/05 03:53:14;;;;;;;33.80;15.45;;;;;;;;;;5134397;27;20041;-77
2021/12/05 03:55:41;;;;;;;27.00;14.10;;;;;;;;;;5098974;27;20051;-79
2021/12/05 03:58:08;;;;;;;32.92;14.55;;;;;;;;;;5134322;27;20086;-77
2021/12/05 04:00:38;;;;;;;27.90;13.75;;;;;;;;;;5134535;27;20078;-77
2021/12/05 04:03:05;;;;;;;31.83;13.50;;;;;;;;;;5134545;27;20047;-78
2021/12/05 04:05:34;;;;;;;27.08;12.45;;;;;;;;;;5116214;27;20426;-77
2021/12/05 04:08:00;;;;;;;28.75;12.50;;;;;;;;;;5134238;27;20050;-78
2021/12/05 04:10:27;;;;;;;29.30;12.60;;;;;;;;;;5134079;27;20042;-78
2021/12/05 04:12:54;;;;;;;25.73;12.15;;;;;;;;;;5134075;27;20047;-77
2021/12/05 04:15:21;;;;;;;28.75;11.80;;;;;;;;;;5134269;27;20035;-77
2021/12/05 04:17:59;;;;;;;26.60;11.75;;;;;;;;;;5116231;27;20096;-78
2021/12/05 04:20:25;;;;;;;28.30;10.75;;;;;;;;;;5134250;27;20099;-78
2021/12/05 04:22:52;;;;;;;20.63;10.20;;;;;;;;;;5133980;27;20050;-76
2021/12/05 04:25:18;;;;;;;24.08;11.45;;;;;;;;;;5133938;27;20047;-78
2021/12/05 04:27:46;;;;;;;24.65;10.07;;;;;;;;;;5134297;27;20039;-76
2021/12/05 04:30:13;;;;;;;22.23;8.95;;;;;;;;;;5115689;27;20050;-76
2021/12/05 04:32:40;;;;;;;19.85;9.50;;;;;;;;;;5133975;27;20050;-77
2021/12/05 04:35:06;;;;;;;24.95;9.82;;;;;;;;;;5134115;27;20133;-80
2021/12/05 04:37:32;;;;;;;26.75;9.68;;;;;;;;;;5134004;27;20123;-76
2021/12/05 04:39:59;;;;;;;24.00;8.90;;;;;;;;;;5134168;28;20043;-77
2021/12/05 04:42:25;;;;;;;19.45;8.05;;;;;;;;;;5134001;28;20421;-79
2021/12/05 04:44:51;;;;;;;23.92;7.97;;;;;;;;;;5115553;28;20384;-76
2021/12/05 04:47:27;;;;;;;26.13;8.18;;;;;;;;;;5118375;27;20488;-76
2021/12/05 04:49:53;;;;;;;22.30;8.13;;;;;;;;;;5141350;27;20047;-78
2021/12/05 04:52:19;;;;;;;21.67;8.48;;;;;;;;;;5127812;27;20042;-76
2021/12/05 04:54:57;;;;;;;22.25;7.90;;;;;;;;;;5146504;27;20100;-76
2021/12/05 04:57:24;;;;;;;19.92;7.35;;;;;;;;;;5145728;27;20051;-77
2021/12/05 04:59:50;;;;;;;25.60;7.68;;;;;;;;;;5144041;27;20035;-76
2021/12/05 05:02:17;;;;;;;20.48;7.78;;;;;;;;;;5119277;27;20074;-77
2021/12/05 05:04:46;;;;;;;19.83;7.53;;;;;;;;;;5119036;27;20049;-79
2021/12/05 05:07:25;;;;;;;22.75;7.43;;;;;;;;;;5137905;27;20053;-78
2021/12/05 05:09:53;;;;;;;18.95;7.50;;;;;;;;;;5119263;27;20035;-77
2021/12/05 05:12:19;;;;;;;22.35;8.07;;;;;;;;;;5137541;27;20387;-76
2021/12/05 05:14:45;;;;;;;22.05;7.40;;;;;;;;;;5137588;27;20541;-78
2021/12/05 05:17:12;;;;;;;19.85;7.05;;;;;;;;;;5137338;27;20484;-77
2021/12/05 05:19:43;;;;;;;19.05;7.35;;;;;;;;;;5137445;27;20061;-78
2021/12/05 05:30:30;;;;;;;17.40;7.30;;;;;;;;;;5118846;27;20047;-76
2021/12/05 05:51:58;;;;;;;20.08;7.93;;;;;;;;;;5106092;27;20109;-78
2021/12/05 05:54:24;;;;;;;21.77;8.38;;;;;;;;;;5136805;27;20043;-76
2021/12/05 05:56:56;;;;;;;19.63;7.65;;;;;;;;;;5136075;27;20055;-78
2021/12/05 05:59:31;;;;;;;24.77;7.47;;;;;;;;;;5136791;27;20134;-78
2021/12/05 06:04:36;;;;;;;22.95;7.60;;;;;;;;;;5118186;27;20488;-77
2021/12/05 06:07:02;;;;;;;24.55;8.20;;;;;;;;;;5118189;27;20050;-77
2021/12/05 06:09:28;;;;;;;26.25;8.43;;;;;;;;;;5136241;27;20050;-76
2021/12/05 06:11:54;;;;;;;21.58;7.53;;;;;;;;;;5118495;27;20492;-80
2021/12/05 06:14:21;;;;;;;22.75;7.68;;;;;;;;;;5136448;27;20547;-77
2021/12/05 06:16:47;;;;;;;21.08;8.00;;;;;;;;;;5136431;27;20054;-78
2021/12/05 06:19:13;;;;;;;23.52;8.15;;;;;;;;;;5136458;27;20035;-77
2021/12/05 06:21:40;;;;;;;20.40;7.03;;;;;;;;;;5117770;27;20047;-78
2021/12/05 06:24:06;;;;;;;19.45;6.88;;;;;;;;;;5135957;27;20039;-77
2021/12/05 06:26:35;;;;;;;24.98;7.70;;;;;;;;;;5136142;27;20080;-78
2021/12/05 06:29:10;;;;;;;23.42;7.68;;;;;;;;;;5117888;27;20499;-79
2021/12/05 06:42:02;;;;;;;20.65;7.13;;;;;;;;;;5136275;27;20566;-79
2021/12/05 06:47:14;;;;;;;27.23;8.00;;;;;;;;;;5135943;27;20047;-79
2021/12/05 06:49:44;;;;;;;23.95;7.80;;;;;;;;;;5117632;27;20131;-79
2021/12/05 06:52:11;;;;;;;21.85;8.50;;;;;;;;;;5135943;27;20388;-78
2021/12/05 06:54:37;;;;;;;24.27;7.70;;;;;;;;;;5135900;27;20505;-77
2021/12/05 06:57:04;;;;;;;26.45;7.90;;;;;;;;;;5113452;28;20489;-79
2021/12/05 06:59:31;;;;;;;27.10;8.82;;;;;;;;;;5114713;28;20392;-77
2021/12/05 07:01:57;;;;;;;23.35;8.48;;;;;;;;;;5115006;28;20104;-78
2021/12/05 07:06:55;;;;;;;24.38;9.27;;;;;;;;;;5114889;28;20050;-77
2021/12/05 07:09:22;;;;;;;24.02;9.73;;;;;;;;;;5096037;28;20039;-79
2021/12/05 07:12:11;;;;;;;29.35;9.00;;;;;;;;;;5114744;28;20050;-78
2021/12/05 07:14:57;;;;;;;27.40;10.05;;;;;;;;;;5114651;28;20047;-78
2021/12/05 07:20:13;;;;;;;24.92;10.05;;;;;;;;;;5114598;28;20047;-79
2021/12/05 07:25:47;;;;;;;27.48;11.30;;;;;;;;;;5103748;28;20093;-80
2021/12/05 07:42:06;;;;;;;30.33;13.18;;;;;;;;;;5114142;28;20039;-76
2021/12/05 07:44:32;;;;;;;23.48;14.43;;;;;;;;;;5113034;28;20086;-78
2021/12/05 07:46:59;;;;;;;30.92;12.90;;;;;;;;;;5112663;28;20043;-78
2021/12/05 07:49:25;;;;;;;30.85;13.43;;;;;;;;;;5113757;28;20044;-79
2021/12/05 07:51:51;;;;;;;29.30;12.10;;;;;;;;;;5114267;28;20036;-78
2021/12/05 07:54:31;;;;;;;26.27;12.80;;;;;;;;;;5112922;28;20043;-77
2021/12/05 07:57:15;;;;;;;28.52;12.52;;;;;;;;;;5112337;28;20047;-78
2021/12/05 08:16:15;;;;;;;32.85;12.60;;;;;;;;;;5113343;28;20050;-77
2021/12/05 08:18:41;;;;;;;28.08;13.07;;;;;;;;;;5111815;28;20051;-76
2021/12/05 08:21:08;;;;;;;25.90;13.23;;;;;;;;;;5113043;28;20540;-78
2021/12/05 08:23:35;;;;;;;28.20;12.75;;;;;;;;;;5113246;28;20499;-78
2021/12/05 08:26:08;;;;;;;27.40;14.25;;;;;;;;;;5095315;28;20047;-78
2021/12/05 08:42:01;;;;;;;27.92;14.52;;;;;;;;;;5112839;28;20401;-78
2021/12/05 09:25:02;;;;;;;27.23;12.13;;;;;;;;;;5114240;28;20049;-79
2021/12/05 10:03:13;;;;;;;22.30;10.35;;;;;;;;;;5136600;27;20074;-77
2021/12/05 10:16:08;;;;;;;22.20;9.63;;;;;;;;;;5136043;27;20126;-77
2021/12/05 10:37:46;;;;;;;20.92;8.25;;;;;;;;;;5116068;28;20047;-77
2021/12/05 10:40:18;;;;;;;15.90;7.40;;;;;;;;;;5115641;28;20039;-78
2021/12/05 10:42:46;;;;;;;16.02;7.30;;;;;;;;;;5115897;28;20389;-77
2021/12/05 10:45:27;;;;;;;17.85;7.93;;;;;;;;;;5114257;28;20040;-77
2021/12/05 10:47:54;;;;;;;14.48;7.68;;;;;;;;;;5115344;28;20085;-77
2021/12/05 10:50:35;;;;;;;14.02;6.97;;;;;;;;;;5115533;28;20035;-76
2021/12/05 10:53:01;;;;;;;;;;;;;;;;;;5115947;28;20036;-78
2021/12/05 10:55:28;;;;;;;12.52;6.70;;;;;;;;;;5115709;28;19939;-77
2021/12/05 10:57:57;;;;;;;14.18;7.35;;;;;;;;;;5115540;28;20100;-76
2021/12/05 11:00:23;;;;;;;13.77;6.85;;;;;;;;;;5115216;28;20047;-78
2021/12/05 11:02:49;;;;;;;17.42;7.13;;;;;;;;;;5097128;28;20427;-77
2021/12/05 11:05:32;;;;;;;14.35;6.60;;;;;;;;;;5115256;28;20049;-77
2021/12/05 11:07:58;;;;;;;16.48;7.75;;;;;;;;;;5115293;28;20050;-78
2021/12/05 11:10:24;;;;;;;21.45;8.07;;;;;;;;;;5115068;28;20039;-78
2021/12/05 11:12:50;;;;;;;17.13;7.47;;;;;;;;;;5096692;28;20341;-78
2021/12/05 11:15:18;;;;;;;17.13;7.65;;;;;;;;;;5114846;28;20054;-78
2021/12/05 11:17:47;;;;;;;18.75;8.25;;;;;;;;;;5114279;28;20040;-78
2021/12/05 11:20:18;;;;;;;17.20;7.93;;;;;;;;;;5114629;28;20043;-77
2021/12/05 11:22:48;;;;;;;15.48;7.03;;;;;;;;;;5097057;28;20168;-77
2021/12/05 11:25:19;;;;;;;15.30;8.20;;;;;;;;;;5114810;28;20042;-77
2021/12/05 11:27:46;;;;;;;15.88;8.35;;;;;;;;;;5114615;28;20088;-79
2021/12/05 11:30:20;;;;;;;16.45;8.20;;;;;;;;;;5096360;28;20501;-78
2021/12/05 11:32:49;;;;;;;18.55;8.15;;;;;;;;;;5114856;28;20043;-78
2021/12/05 11:35:21;;;;;;;20.42;8.27;;;;;;;;;;5114407;28;20051;-77
2021/12/05 11:37:52;;;;;;;16.70;7.82;;;;;;;;;;5114580;28;20128;-78
2021/12/05 11:40:18;;;;;;;18.02;7.47;;;;;;;;;;5096488;28;20051;-77
2021/12/05 11:43:04;;;;;;;17.05;8.05;;;;;;;;;;5113447;28;20504;-78
2021/12/05 11:45:32;;;;;;;16.80;8.38;;;;;;;;;;5114145;28;20165;-79
2021/12/05 11:47:58;;;;;;;14.15;8.68;;;;;;;;;;5095736;28;20048;-76
2021/12/05 11:50:32;;;;;;;18.08;8.70;;;;;;;;;;5095620;28;20046;-78
2021/12/05 11:52:58;;;;;;;22.35;8.82;;;;;;;;;;5113415;28;20049;-76
2021/12/05 11:55:26;;;;;;;24.65;13.85;;;;;;;;;;5077993;28;20122;-78
2021/12/05 11:57:52;;;;;;;15.82;8.52;;;;;;;;;;5113766;28;20053;-76
2021/12/05 12:00:19;;;;;;;19.90;9.77;;;;;;;;;;5118608;28;20039;-76
2021/12/05 12:02:46;;;;;;;20.02;10.48;;;;;;;;;;5103940;28;20040;-76
2021/12/05 12:05:17;;;;;;;27.45;14.00;;;;;;;;;;5122758;28;20263;-76
2021/12/05 12:07:43;;;;;;;21.57;9.97;;;;;;;;;;5119599;28;20055;-77
2021/12/05 12:10:21;;;;;;;17.25;8.93;;;;;;;;;;5099807;28;20039;-77
2021/12/05 12:12:49;;;;;;;21.10;8.95;;;;;;;;;;5113011;28;20040;-77
2021/12/05 12:15:15;;;;;;;16.92;7.90;;;;;;;;;;5094880;28;20495;-78
2021/12/05 12:17:43;;;;;;;18.67;8.10;;;;;;;;;;5095232;28;20066;-76
2021/12/05 12:20:11;;;;;;;20.92;8.80;;;;;;;;;;5094941;28;20044;-77
2021/12/05 12:22:38;;;;;;;18.50;8.43;;;;;;;;;;5094914;28;20503;-78
2021/12/05 12:25:08;;;;;;;18.17;8.40;;;;;;;;;;5113079;28;20370;-80
2021/12/05 12:27:34;;;;;;;21.25;7.95;;;;;;;;;;5113171;28;20044;-77
2021/12/05 12:30:01;;;;;;;16.63;7.93;;;;;;;;;;5113542;28;20043;-77
2021/12/05 12:32:32;;;;;;;13.80;8.00;;;;;;;;;;5113526;28;20392;-77
2021/12/05 12:35:11;;;;;;;18.73;7.78;;;;;;;;;;5113730;28;20079;-79
2021/12/05 12:37:53;;;;;;;16.02;8.52;;;;;;;;;;5095567;28;20544;-79
2021/12/05 12:40:38;;;;;;;17.23;8.15;;;;;;;;;;5113224;28;20039;-78
2021/12/05 12:43:05;;;;;;;15.88;8.13;;;;;;;;;;5077920;28;20044;-78
2021/12/05 12:45:36;;;;;;;20.38;8.23;;;;;;;;;;5113156;28;20047;-77
2021/12/05 12:48:03;;;;;;;16.20;8.02;;;;;;;;;;5112737;28;20252;-76
2021/12/05 12:50:35;;;;;;;16.30;8.13;;;;;;;;;;5112669;28;20096;-76
2021/12/05 12:53:01;;;;;;;18.65;8.02;;;;;;;;;;5094760;28;20530;-77
2021/12/05 12:55:32;;;;;;;19.10;7.70;;;;;;;;;;5112380;28;20043;-77
2021/12/05 12:57:59;;;;;;;17.08;8.02;;;;;;;;;;5112618;28;20044;-78
2021/12/05 13:00:28;;;;;;;16.58;8.05;;;;;;;;;;5112129;28;20534;-76
2021/12/05 13:11:22;;;;;;;12.05;7.50;;;;;;;;;;5116760;28;20082;-77
2021/12/05 13:14:06;;;;;;;14.20;7.90;;;;;;;;;;5116502;28;20040;-77
2021/12/05 13:16:36;;;;;;;12.95;8.43;;;;;;;;;;5116389;28;20126;-76
2021/12/05 13:19:08;;;;;;;19.45;11.98;;;;;;;;;;5116300;28;20366;-76
2021/12/05 13:21:39;;;;;;;15.80;7.57;;;;;;;;;;5097954;28;20279;-78
2021/12/05 13:24:27;;;;;;;13.68;6.63;;;;;;;;;;5116546;28;20050;-77
2021/12/05 13:27:01;;;;;;;12.02;6.75;;;;;;;;;;5098060;28;20052;-76
2021/12/05 13:29:29;;;;;;;14.70;6.78;;;;;;;;;;5098138;28;20048;-79
2021/12/05 13:32:12;;;;;;;14.27;6.70;;;;;;;;;;5116177;28;20370;-76
2021/12/05 13:34:42;;;;;;;14.48;6.72;;;;;;;;;;5116105;28;20118;-76
2021/12/05 13:37:13;;;;;;;11.18;6.40;;;;;;;;;;5097368;28;20369;-77
2021/12/05 13:39:44;;;;;;;11.80;6.82;;;;;;;;;;5115861;28;20116;-77
2021/12/05 13:42:13;;;;;;;15.50;6.65;;;;;;;;;;5097493;28;20066;-77
2021/12/05 13:44:57;;;;;;;10.27;6.30;;;;;;;;;;5097845;28;20043;-79
2021/12/05 13:47:31;;;;;;;10.52;5.95;;;;;;;;;;5115733;28;20043;-77
2021/12/05 13:49:58;;;;;;;13.95;5.95;;;;;;;;;;5115635;28;20059;-79
2021/12/05 13:52:39;;;;;;;14.07;6.50;;;;;;;;;;5116263;28;20393;-79
2021/12/05 13:55:23;;;;;;;12.23;7.20;;;;;;;;;;5116228;28;20039;-78
2021/12/05 13:58:08;;;;;;;13.27;7.25;;;;;;;;;;5074370;28;20127;-77
2021/12/05 14:00:42;;;;;;;14.30;7.32;;;;;;;;;;5075323;28;20040;-78
2021/12/05 14:03:08;;;;;;;16.67;7.50;;;;;;;;;;5075375;28;20043;-78
2021/12/05 14:05:34;;;;;;;18.08;8.25;;;;;;;;;;5074289;28;20083;-78
2021/12/05 14:08:00;;;;;;;17.17;8.40;;;;;;;;;;5075256;28;20051;-76
2021/12/05 14:10:26;;;;;;;17.10;7.93;;;;;;;;;;5075286;28;20047;-77
2021/12/05 14:12:52;;;;;;;34.83;12.55;;;;;;;;;;5075077;28;20056;-77
2021/12/05 14:15:18;;;;;;;22.48;10.52;;;;;;;;;;5074818;28;20044;-79
2021/12/05 14:17:48;;;;;;;19.52;10.50;;;;;;;;;;5074517;28;20540;-78
2021/12/05 14:20:20;;;;;;;54.13;19.83;;;;;;;;;;5075328;28;20044;-79
2021/12/05 14:22:48;;;;;;;64.35;21.15;;;;;;;;;;5075238;28;20049;-77
2021/12/05 14:25:17;;;;;;;39.33;16.92;;;;;;;;;;5074828;28;20040;-77
2021/12/05 14:27:45;;;;;;;32.67;17.75;;;;;;;;;;5075187;28;20059;-79
2021/12/05 14:30:13;;;;;;;23.35;12.85;;;;;;;;;;5075282;28;20049;-77
2021/12/05 14:32:40;;;;;;;30.45;19.45;;;;;;;;;;5075014;28;20397;-78
2021/12/05 14:35:06;;;;;;;19.80;10.75;;;;;;;;;;5074815;28;20045;-76
2021/12/05 14:37:33;;;;;;;42.88;28.65;;;;;;;;;;5074557;28;20044;-75
2021/12/05 14:40:08;;;;;;;27.58;17.92;;;;;;;;;;5073611;28;20045;-76
2021/12/05 14:42:35;;;;;;;18.35;10.48;;;;;;;;;;5074842;28;20048;-76
2021/12/05 14:45:04;;;;;;;20.27;10.55;;;;;;;;;;5074662;28;20048;-76
2021/12/05 14:47:33;;;;;;;14.73;9.20;;;;;;;;;;5074542;28;20144;-76
2021/12/05 14:50:03;;;;;;;15.27;8.65;;;;;;;;;;5073512;28;20044;-77
2021/12/05 14:52:31;;;;;;;16.52;8.50;;;;;;;;;;5074360;28;20040;-75
2021/12/05 14:54:58;;;;;;;15.43;7.85;;;;;;;;;;5074567;28;20037;-76
2021/12/05 14:57:29;;;;;;;15.55;7.72;;;;;;;;;;5109030;28;20055;-77
2021/12/05 15:00:01;;;;;;;14.73;8.05;;;;;;;;;;5115006;28;20043;-77
2021/12/05 15:02:28;;;;;;;13.90;7.35;;;;;;;;;;5114812;28;20050;-77
2021/12/05 15:04:54;;;;;;;15.98;7.72;;;;;;;;;;5096420;28;20061;-76
2021/12/05 15:07:21;;;;;;;14.55;8.07;;;;;;;;;;5114922;28;20067;-78
2021/12/05 15:09:49;;;;;;;16.50;7.82;;;;;;;;;;5114780;28;20047;-78
2021/12/05 15:12:26;;;;;;;13.55;8.35;;;;;;;;;;5114812;28;20044;-76
2021/12/05 15:14:54;;;;;;;13.30;8.25;;;;;;;;;;5096650;28;20480;-78
2021/12/05 15:17:21;;;;;;;15.73;8.05;;;;;;;;;;5114338;28;20039;-78
2021/12/05 15:19:49;;;;;;;13.90;8.85;;;;;;;;;;5096420;28;20108;-76
2021/12/05 15:22:16;;;;;;;17.42;9.82;;;;;;;;;;5114456;28;20043;-77
2021/12/05 15:24:49;;;;;;;15.43;8.48;;;;;;;;;;5096198;28;20044;-77
2021/12/05 15:27:17;;;;;;;17.45;10.13;;;;;;;;;;5114376;28;20039;-77
2021/12/05 15:29:48;;;;;;;16.23;11.27;;;;;;;;;;5095515;28;20403;-74
2021/12/05 15:32:19;;;;;;;23.30;12.68;;;;;;;;;;5114340;28;20092;-79
2021/12/05 15:34:45;;;;;;;16.48;11.77;;;;;;;;;;5114257;28;20035;-77
2021/12/05 15:37:12;;;;;;;15.77;10.48;;;;;;;;;;5096064;28;20039;-76
2021/12/05 15:39:42;;;;;;;19.38;10.90;;;;;;;;;;5114067;28;20081;-76
2021/12/05 15:42:35;;;;;;;19.52;10.40;;;;;;;;;;5114016;28;20118;-75
2021/12/05 15:45:05;;;;;;;19.70;11.68;;;;;;;;;;5091488;28;20495;-76
2021/12/05 15:47:32;;;;;;;18.25;11.38;;;;;;;;;;5113977;28;20445;-78
2021/12/05 15:50:06;;;;;;;17.95;10.25;;;;;;;;;;5113860;28;20152;-79
2021/12/05 15:52:35;;;;;;;16.42;10.80;;;;;;;;;;5113887;28;20554;-78
2021/12/05 15:55:03;;;;;;;18.48;12.02;;;;;;;;;;5114067;28;20050;-77
2021/12/05 15:57:34;;;;;;;19.85;11.88;;;;;;;;;;5113571;28;20051;-76
2021/12/05 16:00:02;;;;;;;17.75;11.50;;;;;;;;;;5113651;28;20043;-77
2021/12/05 16:02:28;;;;;;;20.30;13.80;;;;;;;;;;5113560;28;20040;-78
2021/12/05 16:04:56;;;;;;;20.27;11.93;;;;;;;;;;5113572;28;20039;-76
2021/12/05 16:07:25;;;;;;;25.00;12.70;;;;;;;;;;5113654;28;20054;-76
2021/12/05 16:09:52;;;;;;;17.83;12.75;;;;;;;;;;5095642;28;20043;-77
2021/12/05 16:12:19;;;;;;;21.83;15.05;;;;;;;;;;5095441;28;20132;-77
2021/12/05 16:14:48;;;;;;;19.52;12.40;;;;;;;;;;5113740;28;20044;-78
2021/12/05 16:17:21;;;;;;;25.52;17.92;;;;;;;;;;5113580;28;20047;-77
2021/12/05 16:20:08;;;;;;;25.08;15.27;;;;;;;;;;5113147;28;20062;-77
2021/12/05 16:22:53;;;;;;;22.05;14.93;;;;;;;;;;5113417;28;20079;-76
2021/12/05 16:25:20;;;;;;;22.55;13.43;;;;;;;;;;5113401;28;20047;-78
2021/12/05 16:27:50;;;;;;;25.48;14.00;;;;;;;;;;5113426;28;20085;-77
2021/12/05 16:30:23;;;;;;;22.50;13.45;;;;;;;;;;5113175;28;20046;-75
2021/12/05 16:32:50;;;;;;;25.23;13.68;;;;;;;;;;5113080;28;20036;-76
2021/12/05 16:35:26;;;;;;;21.70;14.85;;;;;;;;;;5113266;28;20058;-75
2021/12/05 16:37:52;;;;;;;22.95;14.25;;;;;;;;;;5061855;28;20086;-76
2021/12/05 16:40:19;;;;;;;25.75;18.15;;;;;;;;;;5112923;28;20122;-77
2021/12/05 16:42:45;;;;;;;24.05;15.52;;;;;;;;;;5095097;28;20079;-78
2021/12/05 16:45:11;;;;;;;26.58;16.70;;;;;;;;;;5113034;28;20550;-77
2021/12/05 16:47:37;;;;;;;26.42;16.52;;;;;;;;;;5112956;28;20362;-77
2021/12/05 16:50:07;;;;;;;25.45;15.35;;;;;;;;;;5094781;28;20481;-76
2021/12/05 16:52:44;;;;;;;28.15;16.80;;;;;;;;;;5094758;28;20047;-77
2021/12/05 16:55:21;;;;;;;26.75;17.17;;;;;;;;;;5094591;28;20052;-75
2021/12/05 16:58:05;;;;;;;26.48;16.63;;;;;;;;;;5094680;28;20443;-76
2021/12/05 17:00:32;;;;;;;27.23;17.58;;;;;;;;;;5113001;28;20043;-75
2021/12/05 17:03:02;;;;;;;29.20;18.83;;;;;;;;;;5112726;28;20044;-76
2021/12/05 17:05:33;;;;;;;28.38;18.95;;;;;;;;;;5094826;28;20043;-76
2021/12/05 17:08:09;;;;;;;28.70;18.33;;;;;;;;;;5113038;28;20039;-77
2021/12/05 17:10:41;;;;;;;28.20;18.90;;;;;;;;;;5112901;28;20088;-77
2021/12/05 17:13:09;;;;;;;31.25;19.95;;;;;;;;;;5112928;28;20500;-77
2021/12/05 17:15:36;;;;;;;32.33;19.17;;;;;;;;;;5112659;28;20108;-75
2021/12/05 17:18:03;;;;;;;35.65;20.80;;;;;;;;;;5112655;28;20039;-75
2021/12/05 17:20:44;;;;;;;31.67;21.02;;;;;;;;;;5094613;28;20051;-76
2021/12/05 17:23:14;;;;;;;36.50;22.15;;;;;;;;;;5112996;28;20043;-76
2021/12/05 17:25:45;;;;;;;37.08;22.23;;;;;;;;;;5094748;28;20512;-76
2021/12/05 17:28:13;;;;;;;35.08;22.83;;;;;;;;;;5094813;28;20184;-78
2021/12/05 17:30:49;;;;;;;38.25;25.02;;;;;;;;;;5112616;28;20050;-76
2021/12/05 17:33:30;;;;;;;39.28;24.77;;;;;;;;;;5112786;28;20052;-76
2021/12/05 17:35:57;;;;;;;45.38;25.33;;;;;;;;;;5112768;28;20039;-77
2021/12/05 17:38:34;;;;;;;37.75;25.30;;;;;;;;;;5112695;28;20051;-76
2021/12/05 17:41:01;;;;;;;35.78;26.15;;;;;;;;;;5094283;28;20384;-76
2021/12/05 17:43:27;;;;;;;41.80;26.40;;;;;;;;;;5112715;28;20392;-78
2021/12/05 17:45:53;;;;;;;41.65;28.25;;;;;;;;;;5112688;28;20040;-75
2021/12/05 17:48:19;;;;;;;40.55;27.65;;;;;;;;;;5094403;28;20054;-77
2021/12/05 17:50:45;;;;;;;44.47;28.20;;;;;;;;;;5112328;28;20082;-77
2021/12/05 17:53:11;;;;;;;43.60;28.35;;;;;;;;;;5113213;28;20047;-76
2021/12/05 17:55:45;;;;;;;40.38;27.83;;;;;;;;;;5097799;28;20051;-79
2021/12/05 17:58:23;;;;;;;45.20;28.67;;;;;;;;;;5115632;28;20131;-76
2021/12/05 18:02:41;;;;;;;42.78;27.33;;;;;;;;;;5115917;28;20039;-76
2021/12/05 18:03:36;;;;;;;43.92;28.27;;;;;;;;;;5114383;28;20044;-75
2021/12/05 18:06:02;;;;;;;41.28;27.73;;;;;;;;;;5080956;28;20092;-79
2021/12/05 18:08:28;;;;;;;41.05;27.17;;;;;;;;;;5116077;28;20385;-76
2021/12/05 18:10:57;;;;;;;45.95;29.75;;;;;;;;;;5115987;28;20086;-76
2021/12/05 18:13:25;;;;;;;37.85;24.30;;;;;;;;;;5115529;28;20434;-78
2021/12/05 18:15:57;;;;;;;41.20;28.52;;;;;;;;;;5115759;28;20123;-78
2021/12/05 18:18:27;;;;;;;41.65;29.23;;;;;;;;;;5115610;28;20161;-79
2021/12/05 18:20:54;;;;;;;42.88;28.88;;;;;;;;;;5115832;28;20047;-78
2021/12/05 18:23:20;;;;;;;40.05;27.67;;;;;;;;;;5097756;28;20043;-77
2021/12/05 18:25:46;;;;;;;40.42;27.23;;;;;;;;;;5115669;28;20051;-76
2021/12/05 18:28:12;;;;;;;45.72;28.88;;;;;;;;;;5115398;28;20173;-76
2021/12/05 18:30:39;;;;;;;40.63;27.88;;;;;;;;;;5115323;28;20524;-77
2021/12/05 18:33:08;;;;;;;40.90;28.75;;;;;;;;;;5115859;28;20050;-76
2021/12/05 18:35:35;;;;;;;47.00;30.33;;;;;;;;;;5115755;28;20038;-76
2021/12/05 18:38:06;;;;;;;45.60;29.17;;;;;;;;;;5115511;28;20384;-76
2021/12/05 18:40:33;;;;;;;37.47;24.83;;;;;;;;;;5097218;28;20044;-78
2021/12/05 18:42:59;;;;;;;37.10;23.60;;;;;;;;;;5115290;28;20381;-76
2021/12/05 18:45:28;;;;;;;39.72;24.08;;;;;;;;;;5097238;28;20522;-79
2021/12/05 18:47:55;;;;;;;35.08;25.45;;;;;;;;;;5115447;28;20070;-77
2021/12/05 18:50:21;;;;;;;36.40;25.25;;;;;;;;;;5097259;28;20035;-78
2021/12/05 18:52:47;;;;;;;33.53;23.50;;;;;;;;;;5097213;28;20040;-78
2021/12/05 18:55:17;;;;;;;29.40;22.70;;;;;;;;;;5080228;28;20047;-77
2021/12/05 18:57:45;;;;;;;36.83;24.73;;;;;;;;;;5096682;28;20050;-77
2021/12/05 19:00:19;;;;;;;38.75;25.02;;;;;;;;;;5096512;28;20048;-77
2021/12/05 19:05:45;;;;;;;36.50;24.23;;;;;;;;;;5095531;28;20051;-78
2021/12/05 19:13:23;;;;;;;34.35;22.02;;;;;;;;;;5096192;28;20036;-77
2021/12/05 19:15:50;;;;;;;32.97;22.00;;;;;;;;;;5114290;28;20039;-76
2021/12/05 19:18:17;;;;;;;33.10;23.75;;;;;;;;;;5114459;28;20512;-75
2021/12/05 19:20:43;;;;;;;34.38;24.02;;;;;;;;;;5114392;28;20490;-77
2021/12/05 19:23:10;;;;;;;39.10;25.08;;;;;;;;;;5114047;28;20092;-76
2021/12/05 19:25:37;;;;;;;38.58;24.65;;;;;;;;;;5114248;28;20043;-76
2021/12/05 19:28:04;;;;;;;39.67;25.85;;;;;;;;;;5096314;28;20043;-76
2021/12/05 19:30:32;;;;;;;37.83;25.73;;;;;;;;;;5114450;28;20050;-77
2021/12/05 19:32:59;;;;;;;38.13;24.88;;;;;;;;;;5119275;28;20070;-75
2021/12/05 19:35:26;;;;;;;39.50;24.25;;;;;;;;;;5120634;28;20039;-75
2021/12/05 19:37:52;;;;;;;37.47;24.83;;;;;;;;;;5120046;28;20051;-75
2021/12/05 19:40:20;;;;;;;39.05;25.80;;;;;;;;;;5100668;28;20043;-77
2021/12/05 19:42:47;;;;;;;36.40;23.60;;;;;;;;;;5115542;28;20044;-78
2021/12/05 19:45:13;;;;;;;34.33;24.55;;;;;;;;;;5096209;28;20377;-77
2021/12/05 19:47:39;;;;;;;35.25;25.45;;;;;;;;;;5114027;28;20046;-77
2021/12/05 19:50:07;;;;;;;35.83;24.83;;;;;;;;;;5113872;28;20100;-76
2021/12/05 19:52:33;;;;;;;34.60;24.55;;;;;;;;;;5095931;28;20051;-76
2021/12/05 19:54:59;;;;;;;34.85;24.17;;;;;;;;;;5095727;28;20115;-76
2021/12/05 19:57:29;;;;;;;33.13;22.98;;;;;;;;;;5095367;28;20070;-77
2021/12/05 19:59:55;;;;;;;62.85;43.75;;;;;;;;;;5113639;28;20050;-79
2021/12/05 20:02:21;;;;;;;46.55;35.90;;;;;;;;;;5113483;28;20524;-77
2021/12/05 20:04:53;;;;;;;33.33;24.83;;;;;;;;;;5095700;28;20040;-78
2021/12/05 20:07:19;;;;;;;;;;;;;;;;;;5095889;28;20051;-79
2021/12/05 20:09:45;;;;;;;30.15;20.52;;;;;;;;;;5113528;28;19922;-77
2021/12/05 20:12:11;;;;;;;27.85;21.90;;;;;;;;;;5113442;28;20043;-78
2021/12/05 20:14:37;;;;;;;29.98;21.48;;;;;;;;;;5078536;28;20095;-77
2021/12/05 20:17:06;;;;;;;27.13;18.70;;;;;;;;;;5112840;28;20089;-77